Time;durP1;ratioP1;P1;durP2;ratioP2;P2;SDS_P1;SDS_P2;PMS_P1;PMS_P2;Temp;Humidity;BMP_temperature;BMP_pressure;BME280_temperature;BME280_humidity;BME280_pressure;Samples;Min_cycle;Max_cycle;Signal;HPM_P1;HPM_P2
2023/03/26 00:01:04;;;;;;;;;5.00;2.50;;;;;;;;5071103;28;9977;-85
2023/03/26 00:03:33;;;;;;;;;5.00;2.00;;;;;;;;5069854;28;9999;-83
2023/03/26 00:06:04;;;;;;;;;3.75;3.75;;;;;;;;5062823;28;9944;-84
2023/03/26 00:08:32;;;;;;;;;3.50;2.50;;;;;;;;5064821;28;10103;-83
2023/03/26 00:11:01;;;;;;;;;4.75;3.00;;;;;;;;5062982;28;9938;-84
2023/03/26 00:13:28;;;;;;;;;3.00;3.00;;;;;;;;5069951;28;10245;-83
2023/03/26 00:15:55;;;;;;;;;3.25;3.00;;;;;;;;5070489;28;10013;-83
2023/03/26 00:18:28;;;;;;;;;5.00;3.50;;;;;;;;5052387;28;10231;-83
2023/03/26 00:20:56;;;;;;;;;3.00;3.00;;;;;;;;5052220;28;10132;-82
2023/03/26 00:23:23;;;;;;;;;2.00;1.25;;;;;;;;5059005;28;10082;-83
2023/03/26 00:25:52;;;;;;;;;3.25;2.25;;;;;;;;5057375;28;10125;-83
2023/03/26 00:28:21;;;;;;;;;1.50;1.25;;;;;;;;5060120;28;10098;-84
2023/03/26 00:30:57;;;;;;;;;2.75;2.75;;;;;;;;5072009;28;10069;-84
2023/03/26 00:33:24;;;;;;;;;3.75;3.00;;;;;;;;5070795;28;10092;-84
2023/03/26 00:35:53;;;;;;;;;4.00;3.00;;;;;;;;5061026;28;10243;-84
2023/03/26 00:38:21;;;;;;;;;2.50;2.00;;;;;;;;5071064;28;10222;-83
2023/03/26 00:40:49;;;;;;;;;4.00;2.00;;;;;;;;5070599;28;10046;-83
2023/03/26 00:43:18;;;;;;;;;3.25;2.75;;;;;;;;5060977;28;10052;-83
2023/03/26 00:45:48;;;;;;;;;7.00;2.25;;;;;;;;5070556;28;9951;-84
2023/03/26 00:48:16;;;;;;;;;1.25;1.25;;;;;;;;5061581;28;10064;-83
2023/03/26 00:50:45;;;;;;;;;3.25;3.25;;;;;;;;5061326;28;9934;-83
2023/03/26 00:53:14;;;;;;;;;2.00;2.00;;;;;;;;5070057;28;9961;-83
2023/03/26 00:55:41;;;;;;;;;2.00;2.00;;;;;;;;5069864;28;10223;-84
2023/03/26 00:58:09;;;;;;;;;3.00;3.00;;;;;;;;5061138;28;9909;-85
2023/03/26 01:00:39;;;;;;;;;3.00;3.00;;;;;;;;5069184;28;9955;-84
2023/03/26 01:03:10;;;;;;;;;2.00;2.00;;;;;;;;5069623;28;10016;-84
2023/03/26 01:05:51;;;;;;;;;1.25;1.25;;;;;;;;5062178;28;9953;-84
2023/03/26 01:08:30;;;;;;;;;2.00;1.00;;;;;;;;5065901;28;9910;-84
2023/03/26 01:11:04;;;;;;;;;2.75;1.75;;;;;;;;5058807;28;10111;-85
2023/03/26 01:13:33;;;;;;;;;5.00;2.00;;;;;;;;5063732;28;10088;-84
2023/03/26 01:16:01;;;;;;;;;2.25;0.75;;;;;;;;5062936;28;10080;-85
2023/03/26 01:18:32;;;;;;;;;3.50;2.00;;;;;;;;5069332;28;9943;-82
2023/03/26 01:21:03;;;;;;;;;2.00;1.75;;;;;;;;5070127;28;10079;-84
2023/03/26 01:23:40;;;;;;;;;4.00;1.00;;;;;;;;5058035;28;10150;-84
2023/03/26 01:26:17;;;;;;;;;1.25;1.25;;;;;;;;5068448;28;10152;-83
2023/03/26 01:28:45;;;;;;;;;2.00;0.50;;;;;;;;5069283;28;10029;-83
2023/03/26 01:31:16;;;;;;;;;0.00;0.00;;;;;;;;5068109;28;10296;-83
2023/03/26 01:33:51;;;;;;;;;0.75;0.00;;;;;;;;5069379;28;10110;-83
2023/03/26 01:36:23;;;;;;;;;2.50;1.00;;;;;;;;5068496;28;10224;-83
2023/03/26 01:38:58;;;;;;;;;2.00;0.75;;;;;;;;5068702;28;10296;-83
2023/03/26 01:41:32;;;;;;;;;1.00;1.00;;;;;;;;5069168;28;10380;-82
2023/03/26 01:44:05;;;;;;;;;0.00;0.00;;;;;;;;5053560;28;10324;-84
2023/03/26 01:46:35;;;;;;;;;0.00;0.00;;;;;;;;5050073;28;10619;-83
2023/03/26 01:49:04;;;;;;;;;0.00;0.00;;;;;;;;5063851;28;10622;-81
2023/03/26 01:51:34;;;;;;;;;0.00;0.00;;;;;;;;5062148;28;10505;-83
2023/03/26 01:54:03;;;;;;;;;0.25;0.25;;;;;;;;5055483;28;10627;-83
2023/03/26 01:56:36;;;;;;;;;0.50;0.50;;;;;;;;5055561;28;10430;-83
2023/03/26 01:59:16;;;;;;;;;0.50;0.25;;;;;;;;5057192;28;10450;-82
2023/03/26 02:01:53;;;;;;;;;1.00;1.00;;;;;;;;5067923;28;10328;-85
2023/03/26 02:04:26;;;;;;;;;2.50;1.00;;;;;;;;5057828;28;10571;-84
2023/03/26 02:07:00;;;;;;;;;1.00;1.00;;;;;;;;5055371;28;10576;-84
2023/03/26 02:09:32;;;;;;;;;1.75;1.75;;;;;;;;5069077;28;10526;-84
2023/03/26 02:12:02;;;;;;;;;2.25;2.25;;;;;;;;5049466;28;10597;-83
2023/03/26 02:14:30;;;;;;;;;2.25;1.50;;;;;;;;5050141;28;10948;-83
2023/03/26 02:16:57;;;;;;;;;2.50;1.00;;;;;;;;5068897;28;10791;-82
2023/03/26 02:19:27;;;;;;;;;1.00;1.00;;;;;;;;5056226;28;10723;-82
2023/03/26 02:21:58;;;;;;;;;0.00;0.00;;;;;;;;5061338;28;10679;-82
2023/03/26 02:24:26;;;;;;;;;0.50;0.50;;;;;;;;5051399;28;11396;-84
2023/03/26 02:26:54;;;;;;;;;3.00;1.75;;;;;;;;5069443;28;10715;-82
2023/03/26 02:29:25;;;;;;;;;2.00;1.50;;;;;;;;5070506;28;10663;-84
2023/03/26 02:31:53;;;;;;;;;1.00;1.00;;;;;;;;5068803;28;10691;-83
2023/03/26 02:34:20;;;;;;;;;4.00;1.00;;;;;;;;5066572;28;10767;-83
2023/03/26 02:36:47;;;;;;;;;1.25;1.25;;;;;;;;5059273;28;10730;-81
2023/03/26 02:39:14;;;;;;;;;4.00;1.50;;;;;;;;5068077;28;10822;-83
2023/03/26 02:41:42;;;;;;;;;1.00;1.00;;;;;;;;5062372;28;10691;-83
2023/03/26 02:44:09;;;;;;;;;1.00;1.00;;;;;;;;5063189;28;10900;-83
2023/03/26 02:46:38;;;;;;;;;1.00;1.00;;;;;;;;5068164;28;10683;-84
2023/03/26 02:49:05;;;;;;;;;1.50;0.50;;;;;;;;5069983;28;10868;-82
2023/03/26 02:51:33;;;;;;;;;1.00;1.00;;;;;;;;5071790;28;11412;-83
2023/03/26 02:54:01;;;;;;;;;1.00;1.00;;;;;;;;5066961;28;10867;-83
2023/03/26 02:56:28;;;;;;;;;3.25;1.75;;;;;;;;5071832;28;10856;-83
2023/03/26 02:58:55;;;;;;;;;1.75;1.75;;;;;;;;5071911;28;10909;-83
2023/03/26 03:01:24;;;;;;;;;1.25;1.25;;;;;;;;5060510;28;10904;-82
2023/03/26 03:03:53;;;;;;;;;1.00;1.00;;;;;;;;5062055;28;10877;-83
2023/03/26 03:06:20;;;;;;;;;1.00;1.00;;;;;;;;5071288;28;11082;-83
2023/03/26 03:08:48;;;;;;;;;2.75;1.25;;;;;;;;5071973;28;11140;-85
2023/03/26 03:11:20;;;;;;;;;1.75;1.00;;;;;;;;5059446;28;11774;-84
2023/03/26 03:13:48;;;;;;;;;1.00;0.75;;;;;;;;5072282;28;11167;-82
2023/03/26 03:16:15;;;;;;;;;1.00;1.00;;;;;;;;5073268;28;11073;-83
2023/03/26 03:18:42;;;;;;;;;2.75;0.25;;;;;;;;5071682;28;11067;-85
2023/03/26 03:21:11;;;;;;;;;1.00;1.00;;;;;;;;5071446;28;11036;-84
2023/03/26 03:23:40;;;;;;;;;1.00;1.00;;;;;;;;5071599;28;11102;-84
2023/03/26 03:26:13;;;;;;;;;2.25;1.00;;;;;;;;5072051;28;11048;-82
2023/03/26 03:28:43;;;;;;;;;0.00;0.00;;;;;;;;5058465;28;11033;-85
2023/03/26 03:31:11;;;;;;;;;3.50;1.00;;;;;;;;5070866;28;11098;-83
2023/03/26 03:33:41;;;;;;;;;1.00;1.00;;;;;;;;5071330;28;10972;-83
2023/03/26 03:36:11;;;;;;;;;1.00;1.00;;;;;;;;5067859;28;11116;-84
2023/03/26 03:38:42;;;;;;;;;1.00;1.00;;;;;;;;5071429;28;10970;-83
2023/03/26 03:41:10;;;;;;;;;2.00;0.50;;;;;;;;5067290;28;10972;-84
2023/03/26 03:43:37;;;;;;;;;0.00;0.00;;;;;;;;5070645;28;11024;-82
2023/03/26 03:46:05;;;;;;;;;1.00;1.00;;;;;;;;5072154;28;10887;-83
2023/03/26 03:48:36;;;;;;;;;1.00;1.00;;;;;;;;5060096;28;11108;-87
2023/03/26 03:51:06;;;;;;;;;1.00;1.00;;;;;;;;5070703;28;10958;-86
2023/03/26 03:53:35;;;;;;;;;1.25;1.00;;;;;;;;5070852;28;11069;-84
2023/03/26 03:56:03;;;;;;;;;1.00;1.00;;;;;;;;5067562;28;10937;-83
2023/03/26 03:58:33;;;;;;;;;1.00;1.00;;;;;;;;5066761;28;10955;-83
2023/03/26 04:01:01;;;;;;;;;2.50;1.00;;;;;;;;5069026;28;10751;-83
2023/03/26 04:03:29;;;;;;;;;0.75;0.50;;;;;;;;5068307;28;10864;-83
2023/03/26 04:05:56;;;;;;;;;1.00;1.00;;;;;;;;5058666;28;10968;-81
2023/03/26 04:08:27;;;;;;;;;0.25;0.25;;;;;;;;5064295;28;11019;-82
2023/03/26 04:10:55;;;;;;;;;1.00;1.00;;;;;;;;5051084;28;10915;-82
2023/03/26 04:13:25;;;;;;;;;1.00;1.00;;;;;;;;5056306;28;10920;-82
2023/03/26 04:15:53;;;;;;;;;2.00;2.00;;;;;;;;5062522;28;10922;-81
2023/03/26 04:18:21;;;;;;;;;0.50;0.50;;;;;;;;5063167;28;11379;-84
2023/03/26 04:20:48;;;;;;;;;0.00;0.00;;;;;;;;5073448;28;11637;-82
2023/03/26 04:23:19;;;;;;;;;1.00;1.00;;;;;;;;5071751;28;10883;-82
2023/03/26 04:25:52;;;;;;;;;1.50;0.75;;;;;;;;5070119;28;10823;-83
2023/03/26 04:28:27;;;;;;;;;1.00;1.00;;;;;;;;5057739;28;10780;-83
2023/03/26 04:31:00;;;;;;;;;2.00;0.00;;;;;;;;5069438;28;10770;-82
2023/03/26 04:33:28;;;;;;;;;0.00;0.00;;;;;;;;5062608;28;10731;-82
2023/03/26 04:36:00;;;;;;;;;0.00;0.00;;;;;;;;5069430;28;10712;-81
2023/03/26 04:38:27;;;;;;;;;0.00;0.00;;;;;;;;5058952;28;11430;-82
2023/03/26 04:40:58;;;;;;;;;0.00;0.00;;;;;;;;5064985;28;10971;-81
2023/03/26 04:43:29;;;;;;;;;0.00;0.00;;;;;;;;5065005;28;10585;-80
2023/03/26 04:45:56;;;;;;;;;0.00;0.00;;;;;;;;5066311;28;10679;-82
2023/03/26 04:48:24;;;;;;;;;1.00;0.00;;;;;;;;5069282;28;10700;-83
2023/03/26 04:50:52;;;;;;;;;0.00;0.00;;;;;;;;5068940;28;10761;-82
2023/03/26 04:53:21;;;;;;;;;0.75;0.00;;;;;;;;5069512;28;10479;-83
2023/03/26 04:55:53;;;;;;;;;0.00;0.00;;;;;;;;5068785;28;10663;-82
2023/03/26 04:58:20;;;;;;;;;0.00;0.00;;;;;;;;5057880;28;11397;-83
2023/03/26 05:00:49;;;;;;;;;0.00;0.00;;;;;;;;5068710;28;10655;-83
2023/03/26 05:03:19;;;;;;;;;0.00;0.00;;;;;;;;5069011;28;10627;-83
2023/03/26 05:05:48;;;;;;;;;0.00;0.00;;;;;;;;5069514;28;10598;-83
2023/03/26 05:08:15;;;;;;;;;0.00;0.00;;;;;;;;5063412;28;10630;-84
2023/03/26 05:10:43;;;;;;;;;0.00;0.00;;;;;;;;5050103;28;10783;-82
2023/03/26 05:13:10;;;;;;;;;0.00;0.00;;;;;;;;5066853;28;10577;-84
2023/03/26 05:15:37;;;;;;;;;0.00;0.00;;;;;;;;5068970;28;10613;-83
2023/03/26 05:18:07;;;;;;;;;0.00;0.00;;;;;;;;5069002;28;10690;-84
2023/03/26 05:20:35;;;;;;;;;0.00;0.00;;;;;;;;5069294;28;10702;-84
2023/03/26 05:23:03;;;;;;;;;0.00;0.00;;;;;;;;5068046;28;10704;-84
2023/03/26 05:25:30;;;;;;;;;0.00;0.00;;;;;;;;5069122;28;11294;-84
2023/03/26 05:27:57;;;;;;;;;0.00;0.00;;;;;;;;5051134;28;10589;-83
2023/03/26 05:30:27;;;;;;;;;0.00;0.00;;;;;;;;5060445;28;10786;-83
2023/03/26 05:32:56;;;;;;;;;0.00;0.00;;;;;;;;5051156;28;10518;-83
2023/03/26 05:35:25;;;;;;;;;0.00;0.00;;;;;;;;5054137;28;10575;-83
2023/03/26 05:37:52;;;;;;;;;0.00;0.00;;;;;;;;5060337;28;10708;-83
2023/03/26 05:40:20;;;;;;;;;0.00;0.00;;;;;;;;5068355;28;10555;-83
2023/03/26 05:42:47;;;;;;;;;0.00;0.00;;;;;;;;5068785;28;10578;-83
2023/03/26 05:45:15;;;;;;;;;0.00;0.00;;;;;;;;5068585;28;10620;-83
2023/03/26 05:47:42;;;;;;;;;1.00;0.00;;;;;;;;5066218;28;10628;-84
2023/03/26 05:50:11;;;;;;;;;0.00;0.00;;;;;;;;5066782;28;10725;-83
2023/03/26 05:52:40;;;;;;;;;0.00;0.00;;;;;;;;5061887;28;10562;-83
2023/03/26 05:55:08;;;;;;;;;0.00;0.00;;;;;;;;5065163;28;10636;-82
2023/03/26 05:57:36;;;;;;;;;0.00;0.00;;;;;;;;5068487;28;10635;-82
2023/03/26 06:00:05;;;;;;;;;0.00;0.00;;;;;;;;5067305;28;10847;-83
2023/03/26 06:02:33;;;;;;;;;0.00;0.00;;;;;;;;5078489;28;10566;-83
2023/03/26 06:05:01;;;;;;;;;0.00;0.00;;;;;;;;5082918;28;10664;-83
2023/03/26 06:07:30;;;;;;;;;0.00;0.00;;;;;;;;5081861;28;10662;-83
2023/03/26 06:09:58;;;;;;;;;0.00;0.00;;;;;;;;5090655;28;10548;-83
2023/03/26 06:12:26;;;;;;;;;0.00;0.00;;;;;;;;5083741;28;10706;-82
2023/03/26 06:14:53;;;;;;;;;0.00;0.00;;;;;;;;5090410;28;10575;-83
2023/03/26 06:17:20;;;;;;;;;0.50;0.50;;;;;;;;5089584;28;10718;-83
2023/03/26 06:19:47;;;;;;;;;1.00;0.00;;;;;;;;5086078;28;10596;-83
2023/03/26 06:22:15;;;;;;;;;0.25;0.00;;;;;;;;5088245;28;10669;-81
2023/03/26 06:24:42;;;;;;;;;0.00;0.00;;;;;;;;5087704;28;10504;-83
2023/03/26 06:27:11;;;;;;;;;1.00;0.00;;;;;;;;5084007;28;10520;-83
2023/03/26 06:29:38;;;;;;;;;0.00;0.00;;;;;;;;5079284;28;10519;-84
2023/03/26 06:32:05;;;;;;;;;0.00;0.00;;;;;;;;5074227;28;10477;-83
2023/03/26 06:34:32;;;;;;;;;1.00;0.00;;;;;;;;5088406;28;10603;-84
2023/03/26 06:37:00;;;;;;;;;0.00;0.00;;;;;;;;5082670;28;10807;-84
2023/03/26 06:39:27;;;;;;;;;0.00;0.00;;;;;;;;5081624;28;10601;-82
2023/03/26 06:41:54;;;;;;;;;1.75;0.00;;;;;;;;5082955;28;10677;-83
2023/03/26 06:44:23;;;;;;;;;1.00;0.00;;;;;;;;5081264;28;10678;-83
2023/03/26 06:46:50;;;;;;;;;0.00;0.00;;;;;;;;5087242;28;10683;-83
2023/03/26 06:49:17;;;;;;;;;0.00;0.00;;;;;;;;5088343;28;10631;-83
2023/03/26 06:51:45;;;;;;;;;0.00;0.00;;;;;;;;5087327;28;10522;-83
2023/03/26 06:54:12;;;;;;;;;0.00;0.00;;;;;;;;5088096;28;10512;-83
2023/03/26 06:56:39;;;;;;;;;0.00;0.00;;;;;;;;5074950;28;11264;-83
2023/03/26 06:59:07;;;;;;;;;0.25;0.00;;;;;;;;5087601;28;10669;-83
2023/03/26 07:01:36;;;;;;;;;0.00;0.00;;;;;;;;5068193;28;10351;-83
2023/03/26 07:04:03;;;;;;;;;0.00;0.00;;;;;;;;5082101;28;10600;-83
2023/03/26 07:06:30;;;;;;;;;0.00;0.00;;;;;;;;5087826;28;10573;-83
2023/03/26 07:08:57;;;;;;;;;0.00;0.00;;;;;;;;5082438;28;10608;-84
2023/03/26 07:11:27;;;;;;;;;0.00;0.00;;;;;;;;5083974;28;10631;-85
2023/03/26 07:13:55;;;;;;;;;1.50;0.00;;;;;;;;5069566;28;10513;-85
2023/03/26 07:16:22;;;;;;;;;1.50;0.00;;;;;;;;5069273;28;10554;-84
2023/03/26 07:18:53;;;;;;;;;0.50;0.00;;;;;;;;5077745;28;10511;-83
2023/03/26 07:21:21;;;;;;;;;1.00;1.00;;;;;;;;5087654;28;10704;-83
2023/03/26 07:23:48;;;;;;;;;0.00;0.00;;;;;;;;5077146;28;10529;-83
2023/03/26 07:26:25;;;;;;;;;0.00;0.00;;;;;;;;5083856;28;10618;-73
2023/03/26 07:28:57;;;;;;;;;0.00;0.00;;;;;;;;5074915;28;10635;-73
2023/03/26 07:31:33;;;;;;;;;0.00;0.00;;;;;;;;5079756;28;10485;-79
2023/03/26 07:34:08;;;;;;;;;0.00;0.00;;;;;;;;5066672;28;10467;-78
2023/03/26 07:36:42;;;;;;;;;0.25;0.00;;;;;;;;5069179;28;10521;-70
2023/03/26 07:39:19;;;;;;;;;0.25;0.25;;;;;;;;5070723;28;10528;-76
2023/03/26 07:41:50;;;;;;;;;0.75;0.75;;;;;;;;5070317;28;10446;-77
2023/03/26 07:44:32;;;;;;;;;2.00;0.00;;;;;;;;5070067;28;10635;-76
2023/03/26 07:47:03;;;;;;;;;0.00;0.00;;;;;;;;5063630;28;10460;-75
2023/03/26 07:49:32;;;;;;;;;0.00;0.00;;;;;;;;5069774;28;10430;-77
2023/03/26 07:52:00;;;;;;;;;0.00;0.00;;;;;;;;5070312;28;10590;-80
2023/03/26 07:54:28;;;;;;;;;0.00;0.00;;;;;;;;5065951;28;10436;-70
2023/03/26 07:56:57;;;;;;;;;0.25;0.00;;;;;;;;5071783;28;10967;-77
2023/03/26 07:59:29;;;;;;;;;0.00;0.00;;;;;;;;5070674;28;10508;-79
2023/03/26 08:02:24;;;;;;;;;0.00;0.00;;;;;;;;5070514;28;10348;-76
2023/03/26 08:05:04;;;;;;;;;2.00;1.00;;;;;;;;5072100;28;10609;-74
2023/03/26 08:07:41;;;;;;;;;0.00;0.00;;;;;;;;5065126;28;10472;-74
2023/03/26 08:10:15;;;;;;;;;2.50;0.50;;;;;;;;5071508;28;10356;-73
2023/03/26 08:12:52;;;;;;;;;0.00;0.00;;;;;;;;5063420;28;10528;-75
2023/03/26 08:15:28;;;;;;;;;0.25;0.25;;;;;;;;5058016;28;10455;-74
2023/03/26 08:18:00;;;;;;;;;0.00;0.00;;;;;;;;5069850;28;10793;-74
2023/03/26 08:20:35;;;;;;;;;0.25;0.25;;;;;;;;5069547;28;10291;-75
2023/03/26 08:23:08;;;;;;;;;0.50;0.00;;;;;;;;5066810;28;10340;-70
2023/03/26 08:25:39;;;;;;;;;0.00;0.00;;;;;;;;5058049;28;10276;-70
2023/03/26 08:28:16;;;;;;;;;0.25;0.00;;;;;;;;5061456;28;10236;-70
2023/03/26 08:30:45;;;;;;;;;0.00;0.00;;;;;;;;5064583;28;10825;-76
2023/03/26 08:33:15;;;;;;;;;2.00;1.00;;;;;;;;5068927;28;10323;-77
2023/03/26 08:35:44;;;;;;;;;0.75;0.00;;;;;;;;5068617;28;10075;-70
2023/03/26 08:38:13;;;;;;;;;1.50;0.00;;;;;;;;5065595;28;10093;-72
2023/03/26 08:41:13;;;;;;;;;1.75;0.50;;;;;;;;5069074;28;10074;-77
2023/03/26 08:44:04;;;;;;;;;0.75;0.75;;;;;;;;5056954;28;10168;-75
2023/03/26 08:46:50;;;;;;;;;0.00;0.00;;;;;;;;5062473;28;10073;-75
2023/03/26 08:49:51;;;;;;;;;1.00;0.00;;;;;;;;5058344;28;10101;-74
2023/03/26 08:52:45;;;;;;;;;0.00;0.00;;;;;;;;5069181;28;10121;-73
2023/03/26 08:55:29;;;;;;;;;0.00;0.00;;;;;;;;5062930;28;10082;-72
2023/03/26 08:58:10;;;;;;;;;0.00;0.00;;;;;;;;5069132;28;10135;-75
2023/03/26 09:00:59;;;;;;;;;3.00;1.00;;;;;;;;5067504;28;10137;-77
2023/03/26 09:03:49;;;;;;;;;0.00;0.00;;;;;;;;5068533;28;10209;-73
2023/03/26 09:06:50;;;;;;;;;0.00;0.00;;;;;;;;5068491;28;10155;-79
2023/03/26 09:09:51;;;;;;;;;2.00;0.00;;;;;;;;5050072;28;10143;-73
2023/03/26 09:12:44;;;;;;;;;0.00;0.00;;;;;;;;5058445;28;10753;-75
2023/03/26 09:16:04;;;;;;;;;0.75;0.00;;;;;;;;5050305;28;9902;-73
2023/03/26 09:19:00;;;;;;;;;0.50;0.50;;;;;;;;5068874;28;9704;-74
2023/03/26 09:22:08;;;;;;;;;2.00;0.00;;;;;;;;5068415;28;9603;-74
2023/03/26 09:25:05;;;;;;;;;0.00;0.00;;;;;;;;5068523;28;9782;-71
2023/03/26 09:27:38;;;;;;;;;0.00;0.00;;;;;;;;5042571;28;9424;-74
2023/03/26 09:30:43;;;;;;;;;0.50;0.50;;;;;;;;5068093;28;9549;-76
2023/03/26 09:33:31;;;;;;;;;0.00;0.00;;;;;;;;5064682;28;9454;-75
2023/03/26 09:36:20;;;;;;;;;1.50;1.50;;;;;;;;5068260;28;9377;-74
2023/03/26 09:38:56;;;;;;;;;2.00;0.00;;;;;;;;5067587;28;9382;-77
2023/03/26 09:41:36;;;;;;;;;0.50;0.00;;;;;;;;5068444;28;9464;-73
2023/03/26 09:44:43;;;;;;;;;1.00;1.00;;;;;;;;5067069;28;9588;-73
2023/03/26 09:47:30;;;;;;;;;1.50;0.50;;;;;;;;5068250;28;9585;-73
2023/03/26 09:50:29;;;;;;;;;0.25;0.25;;;;;;;;5067923;28;9470;-70
2023/03/26 09:53:07;;;;;;;;;2.00;0.00;;;;;;;;5059597;28;9470;-71
2023/03/26 09:55:53;;;;;;;;;2.00;0.00;;;;;;;;5068875;28;9578;-76
2023/03/26 09:58:32;;;;;;;;;0.00;0.00;;;;;;;;5068569;28;9401;-77
2023/03/26 10:01:05;;;;;;;;;1.00;1.00;;;;;;;;5067852;28;9321;-71
2023/03/26 10:03:43;;;;;;;;;0.00;0.00;;;;;;;;5056394;28;9589;-73
2023/03/26 10:06:20;;;;;;;;;0.00;0.00;;;;;;;;5070570;28;9549;-72
2023/03/26 10:08:59;;;;;;;;;2.50;1.75;;;;;;;;5067807;28;9696;-74
2023/03/26 10:11:34;;;;;;;;;0.00;0.00;;;;;;;;5063804;28;10653;-75
2023/03/26 10:14:12;;;;;;;;;0.25;0.25;;;;;;;;5067553;28;9723;-72
2023/03/26 10:16:50;;;;;;;;;1.75;0.00;;;;;;;;5067450;28;9758;-76
2023/03/26 10:19:46;;;;;;;;;3.00;1.25;;;;;;;;5065371;28;9630;-73
2023/03/26 10:22:24;;;;;;;;;0.50;0.00;;;;;;;;5066919;28;9826;-75
2023/03/26 10:25:15;;;;;;;;;0.00;0.00;;;;;;;;5063243;28;9676;-74
2023/03/26 10:27:49;;;;;;;;;0.00;0.00;;;;;;;;5067073;28;9535;-76
2023/03/26 10:30:32;;;;;;;;;0.00;0.00;;;;;;;;5066945;28;9521;-72
2023/03/26 10:33:07;;;;;;;;;2.00;0.67;;;;;;;;5062837;28;10110;-75
2023/03/26 10:35:48;;;;;;;;;1.33;1.33;;;;;;;;5067277;28;9295;-75
2023/03/26 10:38:18;;;;;;;;;0.00;0.00;;;;;;;;5067203;28;9241;-75
2023/03/26 10:40:55;;;;;;;;;3.00;0.00;;;;;;;;5064352;28;9059;-73
2023/03/26 10:43:51;;;;;;;;;0.00;0.00;;;;;;;;5050509;28;9104;-75
2023/03/26 10:46:37;;;;;;;;;1.67;0.00;;;;;;;;5058237;28;9082;-73
2023/03/26 10:49:25;;;;;;;;;0.00;0.00;;;;;;;;5067076;28;9284;-75
2023/03/26 10:51:55;;;;;;;;;0.00;0.00;;;;;;;;5066038;28;9959;-73
2023/03/26 10:54:42;;;;;;;;;0.00;0.00;;;;;;;;5058346;28;9208;-76
2023/03/26 10:57:22;;;;;;;;;0.00;0.00;;;;;;;;5064850;28;9373;-74
2023/03/26 10:59:49;;;;;;;;;0.00;0.00;;;;;;;;5055997;28;9412;-81
2023/03/26 11:02:27;;;;;;;;;0.00;0.00;;;;;;;;5056080;28;9445;-79
2023/03/26 11:05:05;;;;;;;;;0.00;0.00;;;;;;;;5065652;28;9426;-73
2023/03/26 11:07:39;;;;;;;;;0.00;0.00;;;;;;;;5059561;28;9410;-80
2023/03/26 11:10:09;;;;;;;;;0.00;0.00;;;;;;;;5056343;28;9477;-74
2023/03/26 11:12:41;;;;;;;;;0.00;0.00;;;;;;;;5070955;28;9616;-75
2023/03/26 11:15:17;;;;;;;;;2.00;0.50;;;;;;;;5071394;28;9649;-71
2023/03/26 11:17:56;;;;;;;;;1.00;1.00;;;;;;;;5070949;28;9630;-76
2023/03/26 11:20:32;;;;;;;;;1.00;0.00;;;;;;;;5069009;28;9635;-76
2023/03/26 11:23:12;;;;;;;;;0.00;0.00;;;;;;;;5070975;28;9625;-83
2023/03/26 11:25:50;;;;;;;;;0.50;0.00;;;;;;;;5070665;28;9800;-78
2023/03/26 11:28:42;;;;;;;;;0.00;0.00;;;;;;;;5064071;28;10573;-81
2023/03/26 11:31:16;;;;;;;;;0.00;0.00;;;;;;;;5065241;28;10759;-80
2023/03/26 11:33:48;;;;;;;;;0.00;0.00;;;;;;;;5070343;28;9904;-83
2023/03/26 11:36:19;;;;;;;;;0.00;0.00;;;;;;;;5063545;28;9843;-75
2023/03/26 11:38:47;;;;;;;;;0.00;0.00;;;;;;;;5070956;28;9919;-78
2023/03/26 11:41:16;;;;;;;;;0.00;0.00;;;;;;;;5067173;28;9851;-77
2023/03/26 11:43:48;;;;;;;;;0.00;0.00;;;;;;;;5070791;28;9839;-80
2023/03/26 11:46:19;;;;;;;;;0.00;0.00;;;;;;;;5072179;28;9849;-77
2023/03/26 11:48:50;;;;;;;;;1.00;0.00;;;;;;;;5070025;28;9763;-78
2023/03/26 11:51:25;;;;;;;;;0.00;0.00;;;;;;;;5068314;28;9633;-79
2023/03/26 11:53:53;;;;;;;;;0.00;0.00;;;;;;;;5068493;28;9545;-76
2023/03/26 11:56:27;;;;;;;;;1.00;0.00;;;;;;;;5064559;28;9546;-73
2023/03/26 11:58:59;;;;;;;;;0.00;0.00;;;;;;;;5064552;28;9485;-71
2023/03/26 12:01:29;;;;;;;;;0.00;0.00;;;;;;;;5063969;28;9420;-73
2023/03/26 12:04:03;;;;;;;;;0.00;0.00;;;;;;;;5066759;28;9404;-77
2023/03/26 12:06:31;;;;;;;;;1.67;0.00;;;;;;;;5070050;28;9472;-73
2023/03/26 12:08:59;;;;;;;;;0.00;0.00;;;;;;;;5070377;28;9339;-79
2023/03/26 12:11:30;;;;;;;;;0.00;0.00;;;;;;;;5068451;28;9434;-77
2023/03/26 12:14:00;;;;;;;;;0.00;0.00;;;;;;;;5059796;28;9620;-76
2023/03/26 12:16:28;;;;;;;;;0.00;0.00;;;;;;;;5069268;28;9562;-75
2023/03/26 12:21:10;;;;;;;;;0.00;0.00;;;;;;;;5082602;28;14343;-78
2023/03/26 12:23:44;;;;;;;;;0.00;0.00;;;;;;;;5028832;28;10046;-78
2023/03/26 12:26:15;;;;;;;;;0.00;0.00;;;;;;;;5044817;28;9332;-78
2023/03/26 12:28:46;;;;;;;;;0.00;0.00;;;;;;;;5044605;28;9270;-74
2023/03/26 12:31:17;;;;;;;;;1.00;0.00;;;;;;;;5044427;28;10142;-75
2023/03/26 12:33:44;;;;;;;;;0.50;0.00;;;;;;;;5044633;28;10121;-78
2023/03/26 12:36:22;;;;;;;;;0.00;0.00;;;;;;;;5045743;28;9640;-73
2023/03/26 12:38:50;;;;;;;;;0.50;0.50;;;;;;;;5044880;28;9631;-72
2023/03/26 12:41:19;;;;;;;;;2.50;1.00;;;;;;;;5033981;28;10516;-72
2023/03/26 12:43:48;;;;;;;;;1.50;0.25;;;;;;;;5044180;28;9685;-75
2023/03/26 12:46:24;;;;;;;;;0.75;0.00;;;;;;;;5035687;28;9668;-78
2023/03/26 12:48:53;;;;;;;;;0.00;0.00;;;;;;;;5043975;28;9717;-77
2023/03/26 12:51:31;;;;;;;;;0.25;0.25;;;;;;;;5007315;28;85361;-77
2023/03/26 12:54:27;;;;;;;;;0.00;0.00;;;;;;;;5024588;28;9779;-77
2023/03/26 12:57:09;;;;;;;;;2.00;0.50;;;;;;;;5019855;28;11149;-72
2023/03/26 12:59:45;;;;;;;;;1.00;1.00;;;;;;;;5015386;28;10111;-76
2023/03/26 13:02:29;;;;;;;;;0.00;0.00;;;;;;;;5023612;28;9878;-71
2023/03/26 13:05:08;;;;;;;;;0.00;0.00;;;;;;;;5020757;28;13131;-77
2023/03/26 13:07:56;;;;;;;;;0.00;0.00;;;;;;;;5023012;28;9866;-75
2023/03/26 13:10:40;;;;;;;;;1.00;0.00;;;;;;;;5023964;28;9777;-74
2023/03/26 13:13:33;;;;;;;;;0.00;0.00;;;;;;;;5023784;28;9839;-73
2023/03/26 13:16:07;;;;;;;;;1.00;1.00;;;;;;;;5017992;28;11207;-77
2023/03/26 13:18:44;;;;;;;;;0.00;0.00;;;;;;;;5021459;28;10141;-74
2023/03/26 13:21:15;;;;;;;;;0.25;0.25;;;;;;;;5044145;28;10006;-74
2023/03/26 13:23:48;;;;;;;;;0.00;0.00;;;;;;;;5043432;28;9948;-75
2023/03/26 13:26:31;;;;;;;;;0.75;0.75;;;;;;;;5044099;28;9800;-77
2023/03/26 13:29:04;;;;;;;;;0.00;0.00;;;;;;;;5043802;28;9629;-75
2023/03/26 13:31:34;;;;;;;;;0.00;0.00;;;;;;;;5032721;28;10546;-75
2023/03/26 13:34:10;;;;;;;;;0.00;0.00;;;;;;;;5025365;28;9896;-72
2023/03/26 13:36:45;;;;;;;;;0.00;0.00;;;;;;;;5030303;28;9788;-75
2023/03/26 13:39:25;;;;;;;;;0.25;0.25;;;;;;;;5028950;28;10294;-75
2023/03/26 13:42:25;;;;;;;;;2.00;0.00;;;;;;;;5051680;28;10692;-75
2023/03/26 13:45:01;;;;;;;;;0.75;0.00;;;;;;;;5042319;28;9895;-75
2023/03/26 13:47:30;;;;;;;;;0.00;0.00;;;;;;;;5044041;28;9762;-75
2023/03/26 13:50:02;;;;;;;;;1.25;0.00;;;;;;;;5050564;28;9762;-74
2023/03/26 13:52:34;;;;;;;;;0.00;0.00;;;;;;;;5048943;28;9720;-74
2023/03/26 13:55:19;;;;;;;;;0.00;0.00;;;;;;;;5043681;28;10390;-74
2023/03/26 13:57:54;;;;;;;;;0.00;0.00;;;;;;;;5049580;28;9777;-73
2023/03/26 14:00:25;;;;;;;;;0.00;0.00;;;;;;;;5048653;28;9549;-74
2023/03/26 14:02:56;;;;;;;;;0.00;0.00;;;;;;;;5049723;28;10581;-73
2023/03/26 14:05:26;;;;;;;;;0.00;0.00;;;;;;;;5049445;28;10309;-73
2023/03/26 14:07:56;;;;;;;;;0.00;0.00;;;;;;;;5048950;28;9445;-74
2023/03/26 14:10:25;;;;;;;;;0.00;0.00;;;;;;;;5048992;28;9201;-73
2023/03/26 14:12:58;;;;;;;;;1.00;1.00;;;;;;;;5049121;28;9134;-74
2023/03/26 14:15:30;;;;;;;;;0.00;0.00;;;;;;;;5049751;28;9111;-74
2023/03/26 14:18:06;;;;;;;;;1.00;0.00;;;;;;;;5048488;28;9030;-74
2023/03/26 14:20:56;;;;;;;;;0.00;0.00;;;;;;;;5049428;28;8851;-71
2023/03/26 14:23:56;;;;;;;;;0.00;0.00;;;;;;;;5049475;28;8881;-74
2023/03/26 14:26:32;;;;;;;;;0.00;0.00;;;;;;;;5048908;28;9409;-73
2023/03/26 14:29:30;;;;;;;;;0.00;0.00;;;;;;;;5049302;28;8962;-73
2023/03/26 14:32:19;;;;;;;;;1.75;0.00;;;;;;;;5039923;28;8791;-72
2023/03/26 14:35:01;;;;;;;;;0.00;0.00;;;;;;;;5051275;28;8858;-72
2023/03/26 14:37:58;;;;;;;;;0.00;0.00;;;;;;;;5049363;28;9624;-77
2023/03/26 14:40:30;;;;;;;;;0.00;0.00;;;;;;;;5049187;28;8866;-73
2023/03/26 14:43:18;;;;;;;;;1.00;0.00;;;;;;;;5036522;28;9746;-75
2023/03/26 14:46:04;;;;;;;;;0.00;0.00;;;;;;;;5048535;28;9624;-74
2023/03/26 14:48:50;;;;;;;;;0.00;0.00;;;;;;;;5049408;28;9153;-73
2023/03/26 14:51:42;;;;;;;;;0.00;0.00;;;;;;;;5039903;28;9194;-76
2023/03/26 14:54:12;;;;;;;;;1.00;1.00;;;;;;;;5031547;28;9331;-76
2023/03/26 14:56:53;;;;;;;;;0.00;0.00;;;;;;;;5048518;28;9465;-74
2023/03/26 14:59:51;;;;;;;;;0.00;0.00;;;;;;;;5048899;28;10385;-74
2023/03/26 15:02:58;;;;;;;;;0.00;0.00;;;;;;;;5047673;28;9795;-75
2023/03/26 15:06:04;;;;;;;;;0.00;0.00;;;;;;;;5047872;28;9724;-74
2023/03/26 15:09:13;;;;;;;;;0.00;0.00;;;;;;;;5047795;28;9808;-73
2023/03/26 15:11:47;;;;;;;;;0.00;0.00;;;;;;;;5041116;28;10701;-74
2023/03/26 15:14:41;;;;;;;;;0.00;0.00;;;;;;;;5049033;28;9918;-74
2023/03/26 15:17:39;;;;;;;;;0.00;0.00;;;;;;;;5048490;28;10025;-72
2023/03/26 15:20:32;;;;;;;;;0.00;0.00;;;;;;;;5048097;28;9857;-74
2023/03/26 15:23:20;;;;;;;;;0.00;0.00;;;;;;;;5048153;28;10100;-75
2023/03/26 15:26:36;;;;;;;;;0.00;0.00;;;;;;;;5048453;28;9965;-74
2023/03/26 15:29:41;;;;;;;;;1.50;0.00;;;;;;;;5020785;28;9954;-75
2023/03/26 15:32:59;;;;;;;;;0.00;0.00;;;;;;;;5040360;28;9816;-77
2023/03/26 15:35:56;;;;;;;;;0.00;0.00;;;;;;;;5042521;28;9949;-76